createdAt,value
2023-11-24T00:00:39.769Z,100.00
2023-11-24T00:03:08.182Z,100.00
2023-11-24T00:05:34.929Z,100.00
2023-11-24T00:08:04.427Z,100.00
2023-11-24T00:10:33.471Z,100.00
2023-11-24T00:13:00.023Z,100.00
2023-11-24T00:15:27.256Z,100.00
2023-11-24T00:17:57.275Z,100.00
2023-11-24T00:20:27.537Z,100.00
2023-11-24T00:22:54.093Z,100.00
2023-11-24T00:25:20.581Z,100.00
2023-11-24T00:27:47.224Z,100.00
2023-11-24T00:30:15.042Z,100.00
2023-11-24T00:32:42.711Z,100.00
2023-11-24T00:35:09.324Z,100.00
2023-11-24T00:37:38.663Z,100.00
2023-11-24T00:40:09.570Z,100.00
2023-11-24T00:42:36.737Z,100.00
2023-11-24T00:45:12.049Z,100.00
2023-11-24T00:47:39.935Z,100.00
2023-11-24T00:50:07.335Z,100.00
2023-11-24T00:52:33.937Z,100.00
2023-11-24T00:55:00.489Z,100.00
2023-11-24T00:57:27.061Z,100.00
2023-11-24T00:59:53.611Z,100.00
2023-11-24T01:02:20.072Z,100.00
2023-11-24T01:04:51.814Z,100.00
2023-11-24T01:07:18.260Z,100.00
2023-11-24T01:09:45.966Z,100.00
2023-11-24T01:12:13.545Z,100.00
2023-11-24T01:14:39.982Z,100.00
2023-11-24T01:17:06.772Z,100.00
2023-11-24T01:19:33.498Z,100.00
2023-11-24T01:22:00.228Z,100.00
2023-11-24T01:24:27.384Z,100.00
2023-11-24T01:26:55.933Z,100.00
2023-11-24T01:29:22.440Z,100.00
2023-11-24T01:31:48.940Z,100.00
2023-11-24T01:34:15.989Z,100.00
2023-11-24T01:36:47.524Z,100.00
2023-11-24T01:39:16.615Z,100.00
2023-11-24T01:41:43.213Z,100.00
2023-11-24T01:44:12.507Z,100.00
2023-11-24T01:46:40.315Z,100.00
2023-11-24T01:49:06.808Z,100.00
2023-11-24T01:51:33.286Z,100.00
2023-11-24T01:53:59.822Z,100.00
2023-11-24T01:56:27.032Z,100.00
2023-11-24T01:58:57.543Z,100.00
2023-11-24T02:01:25.278Z,100.00
2023-11-24T02:03:52.182Z,100.00
2023-11-24T02:06:18.782Z,100.00
2023-11-24T02:08:47.148Z,100.00
2023-11-24T02:11:15.181Z,100.00
2023-11-24T02:13:41.604Z,100.00
2023-11-24T02:16:09.873Z,100.00
2023-11-24T02:18:36.505Z,100.00
2023-11-24T02:21:03.767Z,100.00
2023-11-24T02:23:35.641Z,100.00
2023-11-24T02:26:02.614Z,100.00
2023-11-24T02:28:29.098Z,100.00
2023-11-24T02:31:02.355Z,100.00
2023-11-24T02:33:29.422Z,100.00
2023-11-24T02:35:56.026Z,100.00
2023-11-24T02:38:23.793Z,100.00
2023-11-24T02:40:51.799Z,100.00
2023-11-24T02:43:18.296Z,100.00
2023-11-24T02:45:46.089Z,100.00
2023-11-24T02:48:13.185Z,100.00
2023-11-24T02:50:39.696Z,100.00
2023-11-24T02:53:06.178Z,100.00
2023-11-24T02:55:34.194Z,100.00
2023-11-24T02:58:02.310Z,100.00
2023-11-24T03:00:29.970Z,100.00
2023-11-24T03:03:03.346Z,100.00
2023-11-24T03:05:30.680Z,100.00
2023-11-24T03:07:57.144Z,100.00
2023-11-24T03:10:24.719Z,100.00
2023-11-24T03:12:51.728Z,100.00
2023-11-24T03:15:18.240Z,100.00
2023-11-24T03:17:44.741Z,100.00
2023-11-24T03:20:13.865Z,100.00
2023-11-24T03:22:41.045Z,100.00
2023-11-24T03:25:08.909Z,100.00
2023-11-24T03:27:35.533Z,100.00
2023-11-24T03:30:02.575Z,100.00
2023-11-24T03:32:30.647Z,100.00
2023-11-24T03:34:57.172Z,100.00
2023-11-24T03:37:23.581Z,100.00
2023-11-24T03:39:50.092Z,100.00
2023-11-24T03:42:16.553Z,100.00
2023-11-24T03:44:42.980Z,100.00
2023-11-24T03:47:09.449Z,100.00
2023-11-24T03:49:35.940Z,100.00
2023-11-24T03:52:02.664Z,100.00
2023-11-24T03:54:29.220Z,100.00
2023-11-24T03:56:55.663Z,100.00
2023-11-24T03:59:22.193Z,100.00
2023-11-24T04:01:48.849Z,100.00
2023-11-24T04:04:15.512Z,100.00
2023-11-24T04:06:42.083Z,100.00
2023-11-24T04:09:09.030Z,100.00
2023-11-24T04:11:36.616Z,100.00
2023-11-24T04:14:03.436Z,100.00
2023-11-24T04:16:31.636Z,100.00
2023-11-24T04:18:58.234Z,100.00
2023-11-24T04:21:24.724Z,100.00
2023-11-24T04:23:52.607Z,100.00
2023-11-24T04:26:21.442Z,100.00
2023-11-24T04:28:50.930Z,100.00
2023-11-24T04:31:17.777Z,100.00
2023-11-24T04:33:46.463Z,100.00
2023-11-24T04:36:13.055Z,100.00
2023-11-24T04:38:39.668Z,100.00
2023-11-24T04:41:07.203Z,100.00
2023-11-24T04:43:33.681Z,100.00
2023-11-24T04:46:00.539Z,100.00
2023-11-24T04:48:27.179Z,100.00
2023-11-24T04:50:56.647Z,100.00
2023-11-24T04:53:25.346Z,100.00
2023-11-24T04:55:51.780Z,100.00
2023-11-24T04:58:22.210Z,100.00
2023-11-24T05:00:48.739Z,100.00
2023-11-24T05:03:16.337Z,100.00
2023-11-24T05:05:42.847Z,100.00
2023-11-24T05:08:09.445Z,100.00
2023-11-24T05:10:41.455Z,100.00
2023-11-24T05:16:02.103Z,100.00
2023-11-24T05:18:28.768Z,100.00
2023-11-24T05:20:57.113Z,100.00
2023-11-24T05:23:34.476Z,100.00
2023-11-24T05:26:02.616Z,100.00
2023-11-24T05:28:29.129Z,100.00
2023-11-24T05:31:04.458Z,100.00
2023-11-24T05:33:37.031Z,100.00
2023-11-24T05:36:10.974Z,100.00
2023-11-24T05:38:40.295Z,100.00
2023-11-24T05:41:07.138Z,100.00
2023-11-24T05:43:33.642Z,100.00
2023-11-24T05:46:00.267Z,100.00
2023-11-24T05:48:29.727Z,100.00
2023-11-24T05:50:57.555Z,100.00
2023-11-24T05:53:24.159Z,100.00
2023-11-24T05:55:50.989Z,100.00
2023-11-24T05:58:18.406Z,100.00
2023-11-24T06:00:45.134Z,100.00
2023-11-24T06:03:11.722Z,100.00
2023-11-24T06:05:38.297Z,100.00
2023-11-24T06:08:06.108Z,100.00
2023-11-24T06:10:32.784Z,100.00
2023-11-24T06:12:59.479Z,100.00
2023-11-24T06:15:27.233Z,100.00
2023-11-24T06:17:55.503Z,100.00
2023-11-24T06:20:22.066Z,100.00
2023-11-24T06:22:49.163Z,100.00
2023-11-24T06:25:16.529Z,100.00
2023-11-24T06:27:43.899Z,100.00
2023-11-24T06:30:10.819Z,100.00
2023-11-24T06:32:37.988Z,100.00
2023-11-24T06:35:07.828Z,100.00
2023-11-24T06:37:34.526Z,100.00
2023-11-24T06:40:04.283Z,100.00
2023-11-24T06:42:34.456Z,100.00
2023-11-24T06:45:01.036Z,100.00
2023-11-24T06:47:28.051Z,100.00
2023-11-24T06:49:54.646Z,100.00
2023-11-24T06:52:21.125Z,100.00
2023-11-24T06:54:47.635Z,100.00
2023-11-24T06:57:16.749Z,100.00
2023-11-24T06:59:44.819Z,100.00
2023-11-24T07:02:11.422Z,100.00
2023-11-24T07:04:38.636Z,100.00
2023-11-24T07:07:07.905Z,100.00
2023-11-24T07:09:34.435Z,100.00
2023-11-24T07:12:00.944Z,100.00
2023-11-24T07:14:27.858Z,100.00
2023-11-24T07:16:54.310Z,100.00
2023-11-24T07:19:23.085Z,100.00
2023-11-24T07:21:49.824Z,100.00
2023-11-24T07:24:16.652Z,100.00
2023-11-24T07:26:43.097Z,100.00
2023-11-24T07:29:09.630Z,100.00
2023-11-24T07:31:38.657Z,100.00
2023-11-24T07:34:05.500Z,100.00
2023-11-24T07:36:32.411Z,100.00
2023-11-24T07:39:00.337Z,100.00
2023-11-24T07:41:26.879Z,100.00
2023-11-24T07:43:53.456Z,100.00
2023-11-24T07:46:20.276Z,100.00
2023-11-24T07:48:46.879Z,100.00
2023-11-24T07:51:13.367Z,100.00
2023-11-24T07:53:39.890Z,100.00
2023-11-24T07:56:06.650Z,100.00
2023-11-24T07:58:33.133Z,100.00
2023-11-24T08:01:01.474Z,100.00
2023-11-24T08:03:29.858Z,100.00
2023-11-24T08:05:59.171Z,100.00
2023-11-24T08:08:25.770Z,100.00
2023-11-24T08:10:52.434Z,100.00
2023-11-24T08:13:20.536Z,100.00
2023-11-24T08:15:48.403Z,100.00
2023-11-24T08:18:17.221Z,100.00
2023-11-24T08:20:43.885Z,100.00
2023-11-24T08:23:12.060Z,100.00
2023-11-24T08:25:38.550Z,100.00
2023-11-24T08:28:05.859Z,100.00
2023-11-24T08:30:33.697Z,100.00
2023-11-24T08:33:00.676Z,100.00
2023-11-24T08:35:27.185Z,100.00
2023-11-24T08:37:53.629Z,100.00
2023-11-24T08:40:23.261Z,100.00
2023-11-24T08:42:49.872Z,100.00
2023-11-24T08:45:18.216Z,100.00
2023-11-24T08:47:45.211Z,100.00
2023-11-24T08:50:14.462Z,100.00
2023-11-24T08:52:42.553Z,100.00
2023-11-24T08:55:09.620Z,100.00
2023-11-24T08:57:36.409Z,100.00
2023-11-24T09:00:03.031Z,100.00
2023-11-24T09:02:31.286Z,100.00
2023-11-24T09:04:57.940Z,100.00
2023-11-24T09:07:24.426Z,100.00
2023-11-24T09:09:51.104Z,100.00
2023-11-24T09:12:20.401Z,100.00
2023-11-24T09:14:47.156Z,100.00
2023-11-24T09:17:14.429Z,100.00
2023-11-24T09:19:40.969Z,100.00
2023-11-24T09:22:07.601Z,100.00
2023-11-24T09:24:34.944Z,100.00
2023-11-24T09:27:04.037Z,100.00
2023-11-24T09:29:30.487Z,100.00
2023-11-24T09:31:59.360Z,100.00
2023-11-24T09:34:27.801Z,100.00
2023-11-24T09:36:54.704Z,100.00
2023-11-24T09:39:26.403Z,100.00
2023-11-24T09:41:54.099Z,100.00
2023-11-24T09:44:20.550Z,100.00
2023-11-24T09:46:51.824Z,100.00
2023-11-24T09:49:19.446Z,100.00
2023-11-24T09:51:45.944Z,100.00
2023-11-24T09:54:12.608Z,100.00
2023-11-24T09:56:44.057Z,100.00
2023-11-24T09:59:10.663Z,100.00
2023-11-24T10:01:40.750Z,100.00
2023-11-24T10:04:07.321Z,100.00
2023-11-24T10:06:34.598Z,100.00
2023-11-24T10:09:01.102Z,100.00
2023-11-24T10:11:30.500Z,100.00
2023-11-24T10:13:57.474Z,100.00
2023-11-24T10:16:24.127Z,100.00
2023-11-24T10:18:51.273Z,100.00
2023-11-24T10:21:27.438Z,100.00
2023-11-24T10:23:58.613Z,100.00
2023-11-24T10:26:27.092Z,100.00
2023-11-24T10:28:53.887Z,100.00
2023-11-24T10:31:21.216Z,100.00
2023-11-24T10:33:47.976Z,100.00
2023-11-24T10:36:19.679Z,100.00
2023-11-24T10:38:46.260Z,100.00
2023-11-24T10:41:20.478Z,100.00
2023-11-24T10:43:50.486Z,100.00
2023-11-24T10:46:17.673Z,100.00
2023-11-24T10:49:02.894Z,100.00
2023-11-24T10:51:49.901Z,100.00
2023-11-24T10:54:27.085Z,100.00
2023-11-24T10:56:53.614Z,100.00
2023-11-24T10:59:21.018Z,100.00
2023-11-24T11:01:47.920Z,100.00
2023-11-24T11:04:15.482Z,100.00
2023-11-24T11:07:00.713Z,100.00
2023-11-24T11:09:43.903Z,100.00
2023-11-24T11:12:30.933Z,100.00
2023-11-24T11:14:57.696Z,100.00
2023-11-24T11:17:26.418Z,100.00
2023-11-24T11:20:08.397Z,100.00
2023-11-24T11:22:35.533Z,100.00
2023-11-24T11:25:14.768Z,100.00
2023-11-24T11:27:43.096Z,100.00
2023-11-24T11:30:27.553Z,100.00
2023-11-24T11:33:03.693Z,100.00
2023-11-24T11:35:30.257Z,100.00
2023-11-24T11:38:00.611Z,100.00
2023-11-24T11:40:34.327Z,100.00
2023-11-24T11:43:06.539Z,100.00
2023-11-24T11:45:34.311Z,100.00
2023-11-24T11:48:05.011Z,100.00
2023-11-24T11:50:34.651Z,100.00
2023-11-24T11:53:02.120Z,100.00
2023-11-24T11:55:29.952Z,100.00
2023-11-24T11:57:58.150Z,100.00
2023-11-24T12:00:26.676Z,100.00
2023-11-24T12:02:53.931Z,100.00
2023-11-24T12:05:22.922Z,100.00
2023-11-24T12:07:57.005Z,100.00
2023-11-24T12:10:31.505Z,100.00
2023-11-24T12:12:59.880Z,100.00
2023-11-24T12:15:26.471Z,100.00
2023-11-24T12:17:58.253Z,100.00
2023-11-24T12:20:24.913Z,100.00
2023-11-24T12:22:52.071Z,100.00
2023-11-24T12:25:18.939Z,100.00
2023-11-24T12:27:48.413Z,100.00
2023-11-24T12:30:15.545Z,100.00
2023-11-24T12:32:42.357Z,100.00
2023-11-24T12:35:09.564Z,100.00
2023-11-24T12:37:41.425Z,100.00
2023-11-24T12:40:10.763Z,100.00
2023-11-24T12:42:38.313Z,100.00
2023-11-24T12:45:11.925Z,100.00
2023-11-24T12:47:42.000Z,100.00
2023-11-24T12:50:13.043Z,100.00
2023-11-24T12:52:40.398Z,100.00
2023-11-24T12:55:08.857Z,100.00
2023-11-24T12:57:36.047Z,100.00
2023-11-24T13:00:16.266Z,100.00
2023-11-24T13:02:43.494Z,99.10
2023-11-24T13:05:10.820Z,94.50
2023-11-24T13:07:43.969Z,91.90
2023-11-24T13:10:16.066Z,92.60
2023-11-24T13:12:43.143Z,92.21
2023-11-24T13:15:17.753Z,93.92
2023-11-24T13:17:44.366Z,95.13
2023-11-24T13:20:14.817Z,94.60
2023-11-24T13:22:41.677Z,95.27
2023-11-24T13:25:09.740Z,98.36
2023-11-24T13:27:36.679Z,99.39
2023-11-24T13:30:05.020Z,100.00
2023-11-24T13:32:31.589Z,100.00
2023-11-24T13:34:58.596Z,100.00
2023-11-24T13:37:25.174Z,100.00
2023-11-24T13:39:51.650Z,100.00
2023-11-24T13:42:18.716Z,100.00
2023-11-24T13:44:46.285Z,100.00
2023-11-24T13:47:16.151Z,100.00
2023-11-24T13:49:43.512Z,100.00
2023-11-24T13:52:12.519Z,100.00
2023-11-24T13:54:40.704Z,100.00
2023-11-24T13:57:07.179Z,100.00
2023-11-24T13:59:33.668Z,100.00
2023-11-24T14:02:01.293Z,100.00
2023-11-24T14:04:34.077Z,100.00
2023-11-24T14:07:01.906Z,100.00
2023-11-24T14:09:33.388Z,100.00
2023-11-24T14:12:00.519Z,100.00
2023-11-24T14:14:31.001Z,100.00
2023-11-24T14:16:57.479Z,100.00
2023-11-24T14:19:24.025Z,100.00
2023-11-24T14:21:51.236Z,100.00
2023-11-24T14:24:18.926Z,100.00
2023-11-24T14:26:45.955Z,100.00
2023-11-24T14:29:13.565Z,100.00
2023-11-24T14:31:40.929Z,100.00
2023-11-24T14:34:07.974Z,100.00
2023-11-24T14:36:35.069Z,100.00
2023-11-24T14:39:02.757Z,100.00
2023-11-24T14:41:31.919Z,100.00
2023-11-24T14:43:59.051Z,100.00
2023-11-24T14:46:30.616Z,100.00
2023-11-24T14:48:57.666Z,100.00
2023-11-24T14:51:24.246Z,100.00
2023-11-24T14:53:50.956Z,100.00
2023-11-24T14:56:17.807Z,100.00
2023-11-24T14:58:44.621Z,100.00
2023-11-24T15:01:12.748Z,100.00
2023-11-24T15:03:40.815Z,100.00
2023-11-24T15:06:09.497Z,100.00
2023-11-24T15:08:47.663Z,100.00
2023-11-24T15:11:16.624Z,100.00
2023-11-24T15:13:43.647Z,100.00
2023-11-24T15:16:20.076Z,100.00
2023-11-24T15:18:49.377Z,100.00
2023-11-24T15:21:45.450Z,100.00
2023-11-24T15:24:11.925Z,100.00
2023-11-24T15:26:38.510Z,100.00
2023-11-24T15:29:09.309Z,100.00
2023-11-24T15:31:39.634Z,100.00
2023-11-24T15:34:06.472Z,100.00
2023-11-24T15:36:35.084Z,100.00
2023-11-24T15:39:05.357Z,100.00
2023-11-24T15:41:39.084Z,100.00
2023-11-24T15:44:07.985Z,100.00
2023-11-24T15:46:35.195Z,100.00
2023-11-24T15:49:04.731Z,100.00
2023-11-24T15:51:31.462Z,100.00
2023-11-24T15:53:57.901Z,100.00
2023-11-24T15:56:24.862Z,100.00
2023-11-24T15:58:55.770Z,100.00
2023-11-24T16:01:23.043Z,100.00
2023-11-24T16:03:52.911Z,100.00
2023-11-24T16:06:22.955Z,100.00
2023-11-24T16:08:55.729Z,100.00
2023-11-24T16:11:27.889Z,100.00
2023-11-24T16:13:55.115Z,100.00
2023-11-24T16:16:22.470Z,100.00
2023-11-24T16:18:49.054Z,100.00
2023-11-24T16:21:15.506Z,100.00
2023-11-24T16:23:42.482Z,100.00
2023-11-24T16:26:11.069Z,100.00
2023-11-24T16:28:38.339Z,100.00
2023-11-24T16:31:05.789Z,100.00
2023-11-24T16:33:34.206Z,100.00
2023-11-24T16:36:03.576Z,100.00
2023-11-24T16:38:34.076Z,100.00
2023-11-24T16:41:04.417Z,100.00
2023-11-24T16:43:31.104Z,100.00
2023-11-24T16:45:57.739Z,100.00
2023-11-24T16:48:25.820Z,100.00
2023-11-24T16:50:52.354Z,100.00
2023-11-24T16:53:18.965Z,100.00
2023-11-24T16:55:48.766Z,100.00
2023-11-24T16:58:15.489Z,100.00
2023-11-24T17:00:42.862Z,100.00
2023-11-24T17:03:11.992Z,100.00
2023-11-24T17:05:43.019Z,100.00
2023-11-24T17:08:11.097Z,100.00
2023-11-24T17:10:37.790Z,100.00
2023-11-24T17:13:05.884Z,100.00
2023-11-24T17:15:32.479Z,100.00
2023-11-24T17:17:59.464Z,100.00
2023-11-24T17:20:28.741Z,100.00
2023-11-24T17:22:56.821Z,100.00
2023-11-24T17:25:32.268Z,100.00
2023-11-24T17:28:03.599Z,100.00
2023-11-24T17:30:32.471Z,100.00
2023-11-24T17:32:58.967Z,100.00
2023-11-24T17:35:25.752Z,100.00
2023-11-24T17:37:59.819Z,100.00
2023-11-24T17:40:27.895Z,100.00
2023-11-24T17:42:54.605Z,100.00
2023-11-24T17:45:23.047Z,100.00
2023-11-24T17:47:50.653Z,100.00
2023-11-24T17:50:22.390Z,100.00
2023-11-24T17:52:52.186Z,100.00
2023-11-24T17:55:21.981Z,100.00
2023-11-24T17:57:49.650Z,100.00
2023-11-24T18:00:22.824Z,100.00
2023-11-24T18:02:51.170Z,100.00
2023-11-24T18:05:18.147Z,100.00
2023-11-24T18:07:44.814Z,100.00
2023-11-24T18:10:11.427Z,100.00
2023-11-24T18:12:41.101Z,100.00
2023-11-24T18:15:08.185Z,100.00
2023-11-24T18:17:34.918Z,100.00
2023-11-24T18:20:02.080Z,100.00
2023-11-24T18:22:28.781Z,100.00
2023-11-24T18:24:55.534Z,100.00
2023-11-24T18:27:27.338Z,100.00
2023-11-24T18:29:53.897Z,100.00
2023-11-24T18:32:20.481Z,100.00
2023-11-24T18:34:47.125Z,100.00
2023-11-24T18:37:13.813Z,100.00
2023-11-24T18:39:40.301Z,100.00
2023-11-24T18:42:07.112Z,100.00
2023-11-24T18:44:34.596Z,100.00
2023-11-24T18:47:02.761Z,100.00
2023-11-24T18:49:29.710Z,100.00
2023-11-24T18:51:56.612Z,100.00
2023-11-24T18:54:23.297Z,100.00
2023-11-24T18:56:52.881Z,100.00
2023-11-24T18:59:24.636Z,100.00
2023-11-24T19:01:51.328Z,100.00
2023-11-24T19:04:20.762Z,100.00
2023-11-24T19:06:48.871Z,100.00
2023-11-24T19:09:17.355Z,100.00
2023-11-24T19:11:51.244Z,100.00
2023-11-24T19:14:18.867Z,100.00
2023-11-24T19:16:51.781Z,100.00
2023-11-24T19:19:19.041Z,100.00
2023-11-24T19:21:52.981Z,100.00
2023-11-24T19:24:19.860Z,100.00
2023-11-24T19:26:49.261Z,100.00
2023-11-24T19:29:20.291Z,100.00
2023-11-24T19:31:46.951Z,100.00
2023-11-24T19:34:15.057Z,100.00
2023-11-24T19:36:43.040Z,100.00
2023-11-24T19:39:11.901Z,100.00
2023-11-24T19:41:38.587Z,100.00
2023-11-24T19:44:05.464Z,100.00
2023-11-24T19:46:32.185Z,100.00
2023-11-24T19:49:03.196Z,100.00
2023-11-24T19:51:34.867Z,100.00
2023-11-24T19:54:02.514Z,100.00
2023-11-24T19:56:29.128Z,100.00
2023-11-24T19:58:58.025Z,100.00
2023-11-24T20:01:28.504Z,100.00
2023-11-24T20:03:55.101Z,100.00
2023-11-24T20:06:22.673Z,100.00
2023-11-24T20:08:49.480Z,100.00
2023-11-24T20:11:16.318Z,100.00
2023-11-24T20:13:43.046Z,100.00
2023-11-24T20:16:14.677Z,100.00
2023-11-24T20:18:50.481Z,100.00
2023-11-24T20:21:17.191Z,100.00
2023-11-24T20:23:43.770Z,100.00
2023-11-24T20:26:13.361Z,100.00
2023-11-24T20:28:40.475Z,100.00
2023-11-24T20:31:08.103Z,100.00
2023-11-24T20:33:38.462Z,100.00
2023-11-24T20:36:06.719Z,100.00
2023-11-24T20:38:33.344Z,100.00
2023-11-24T20:41:00.068Z,100.00
2023-11-24T20:43:28.819Z,100.00
2023-11-24T20:45:55.344Z,100.00
2023-11-24T20:48:22.045Z,100.00
2023-11-24T20:50:48.708Z,100.00
2023-11-24T20:53:15.482Z,100.00
2023-11-24T20:55:42.426Z,100.00
2023-11-24T20:58:08.980Z,100.00
2023-11-24T21:00:35.604Z,100.00
2023-11-24T21:03:02.314Z,100.00
2023-11-24T21:05:28.825Z,100.00
2023-11-24T21:07:55.701Z,100.00
2023-11-24T21:10:22.719Z,100.00
2023-11-24T21:12:50.439Z,100.00
2023-11-24T21:15:19.102Z,100.00
2023-11-24T21:17:46.413Z,100.00
2023-11-24T21:20:15.127Z,100.00
2023-11-24T21:22:41.817Z,100.00
2023-11-24T21:25:08.369Z,100.00
2023-11-24T21:27:36.421Z,100.00
2023-11-24T21:30:03.095Z,100.00
2023-11-24T21:32:31.415Z,100.00
2023-11-24T21:34:58.807Z,100.00
2023-11-24T21:37:29.528Z,100.00
2023-11-24T21:40:01.936Z,100.00
2023-11-24T21:42:31.860Z,100.00
2023-11-24T21:44:58.424Z,100.00
2023-11-24T21:47:25.151Z,100.00
2023-11-24T21:49:51.737Z,100.00
2023-11-24T21:52:18.148Z,100.00
2023-11-24T21:54:47.542Z,100.00
2023-11-24T21:57:15.152Z,100.00
2023-11-24T21:59:41.817Z,100.00
2023-11-24T22:02:08.450Z,100.00
2023-11-24T22:04:34.957Z,100.00
2023-11-24T22:07:01.916Z,100.00
2023-11-24T22:09:28.345Z,100.00
2023-11-24T22:11:54.780Z,100.00
2023-11-24T22:14:23.119Z,100.00
2023-11-24T22:16:50.373Z,100.00
2023-11-24T22:19:17.836Z,100.00
2023-11-24T22:21:44.254Z,100.00
2023-11-24T22:24:11.011Z,100.00
2023-11-24T22:26:39.164Z,100.00
2023-11-24T22:29:05.807Z,100.00
2023-11-24T22:31:32.459Z,100.00
2023-11-24T22:33:58.916Z,100.00
2023-11-24T22:36:25.334Z,100.00
2023-11-24T22:38:51.780Z,100.00
2023-11-24T22:41:18.914Z,100.00
2023-11-24T22:43:45.600Z,100.00
2023-11-24T22:46:18.878Z,100.00
2023-11-24T22:48:45.402Z,100.00
2023-11-24T22:51:18.778Z,100.00
2023-11-24T22:53:45.204Z,100.00
2023-11-24T22:56:23.660Z,100.00
2023-11-24T22:58:55.770Z,100.00
2023-11-24T23:01:23.252Z,100.00
2023-11-24T23:03:50.512Z,100.00
2023-11-24T23:06:19.044Z,100.00
2023-11-24T23:08:46.403Z,100.00
2023-11-24T23:11:19.506Z,100.00
2023-11-24T23:13:47.797Z,100.00
2023-11-24T23:16:14.818Z,100.00
2023-11-24T23:18:41.642Z,100.00
2023-11-24T23:21:10.289Z,100.00
2023-11-24T23:23:37.077Z,100.00
2023-11-24T23:26:05.153Z,100.00
2023-11-24T23:28:32.354Z,100.00
2023-11-24T23:31:00.067Z,100.00
2023-11-24T23:33:26.864Z,100.00
2023-11-24T23:35:53.586Z,100.00
2023-11-24T23:38:23.068Z,100.00
2023-11-24T23:40:49.656Z,100.00
2023-11-24T23:43:16.214Z,100.00
2023-11-24T23:45:42.845Z,100.00
2023-11-24T23:48:09.657Z,100.00
2023-11-24T23:50:36.157Z,100.00
2023-11-24T23:53:04.841Z,100.00
2023-11-24T23:55:31.293Z,100.00
2023-11-24T23:57:57.783Z,100.00
